createdAt,value
2022-11-12T00:04:35.576Z,9.15
2022-11-12T00:09:37.311Z,8.20
2022-11-12T00:14:38.951Z,9.35
2022-11-12T00:19:40.620Z,9.60
2022-11-12T00:24:42.280Z,9.80
2022-11-12T00:29:44.039Z,10.15
2022-11-12T00:34:46.006Z,8.38
2022-11-12T00:39:47.653Z,8.57
2022-11-12T00:44:50.001Z,9.52
2022-11-12T00:49:51.685Z,7.30
2022-11-12T00:54:53.341Z,7.55
2022-11-12T00:59:54.998Z,9.48
2022-11-12T01:04:56.693Z,8.15
2022-11-12T01:09:58.340Z,8.50
2022-11-12T01:15:00.099Z,9.48
2022-11-12T01:20:01.813Z,6.97
2022-11-12T01:25:03.721Z,8.73
2022-11-12T01:30:06.227Z,9.57
2022-11-12T01:35:08.136Z,10.35
2022-11-12T01:40:10.421Z,8.07
2022-11-12T01:45:15.930Z,9.60
2022-11-12T01:50:24.984Z,7.40
2022-11-12T01:55:32.269Z,8.85
2022-11-12T02:00:33.968Z,11.13
2022-11-12T02:05:38.120Z,10.50
2022-11-12T02:10:40.897Z,9.13
2022-11-12T02:15:43.069Z,9.98
2022-11-12T02:20:44.877Z,10.38
2022-11-12T02:25:46.544Z,9.10
2022-11-12T02:30:49.450Z,10.23
2022-11-12T02:35:51.099Z,8.43
2022-11-12T02:40:53.029Z,9.80
2022-11-12T02:45:54.913Z,10.90
2022-11-12T02:50:56.633Z,9.23
2022-11-12T02:55:59.249Z,9.18
2022-11-12T03:01:01.127Z,11.63
2022-11-12T03:06:02.943Z,9.05
2022-11-12T03:11:10.079Z,9.25
2022-11-12T03:16:11.842Z,10.02
2022-11-12T03:21:13.541Z,9.65
2022-11-12T03:26:15.244Z,11.57
2022-11-12T03:31:17.267Z,9.38
2022-11-12T03:36:19.017Z,7.70
2022-11-12T03:41:20.696Z,8.50
2022-11-12T03:46:22.436Z,9.77
2022-11-12T03:51:24.109Z,9.25
2022-11-12T03:56:25.758Z,9.63
2022-11-12T04:01:27.562Z,8.68
2022-11-12T04:06:47.929Z,10.13
2022-11-12T04:11:49.578Z,7.57
2022-11-12T04:17:23.438Z,8.68
2022-11-12T04:22:25.097Z,9.52
2022-11-12T04:27:34.240Z,11.60
2022-11-12T04:32:39.084Z,13.45
2022-11-12T04:37:47.514Z,11.40
2022-11-12T04:43:07.970Z,15.52
2022-11-12T04:48:09.645Z,10.68
2022-11-12T04:53:11.650Z,8.55
2022-11-12T04:58:13.369Z,10.15
2022-11-12T05:03:15.340Z,10.77
2022-11-12T05:08:16.998Z,11.10
2022-11-12T05:13:18.668Z,11.85
2022-11-12T05:18:20.380Z,9.93
2022-11-12T05:23:22.053Z,9.02
2022-11-12T05:28:23.971Z,8.32
2022-11-12T05:33:25.924Z,10.43
2022-11-12T05:38:27.867Z,10.93
2022-11-12T05:43:29.677Z,9.88
2022-11-12T05:48:32.078Z,9.57
2022-11-12T05:53:34.067Z,11.27
2022-11-12T05:58:36.709Z,10.05
2022-11-12T06:03:38.408Z,10.75
2022-11-12T06:08:40.213Z,12.40
2022-11-12T06:13:42.239Z,12.48
2022-11-12T06:18:43.924Z,13.68
2022-11-12T06:23:50.676Z,12.57
2022-11-12T06:28:52.905Z,12.68
2022-11-12T06:33:54.680Z,13.60
2022-11-12T06:38:56.433Z,13.63
2022-11-12T06:43:58.172Z,14.52
2022-11-12T06:48:59.815Z,12.70
2022-11-12T06:54:01.490Z,11.95
2022-11-12T06:59:03.300Z,11.80
2022-11-12T07:04:05.279Z,13.70
2022-11-12T07:09:07.144Z,13.20
2022-11-12T07:14:09.103Z,15.57
2022-11-12T07:19:10.802Z,14.48
2022-11-12T07:24:12.557Z,15.50
2022-11-12T07:29:24.952Z,17.33
2022-11-12T07:34:35.994Z,22.83
2022-11-12T07:39:37.807Z,16.40
2022-11-12T07:44:39.487Z,23.95
2022-11-12T07:49:41.239Z,17.10
2022-11-12T07:54:42.893Z,14.35
2022-11-12T07:59:46.332Z,19.17
2022-11-12T08:04:48.306Z,17.40
2022-11-12T08:09:49.966Z,19.73
2022-11-12T08:14:52.879Z,16.52
2022-11-12T08:19:55.271Z,17.33
2022-11-12T08:24:57.032Z,13.98
2022-11-12T08:29:58.683Z,18.17
2022-11-12T08:35:00.452Z,14.25
2022-11-12T08:40:02.210Z,11.43
2022-11-12T08:45:04.216Z,13.73
2022-11-12T08:50:06.386Z,14.07
2022-11-12T08:55:08.606Z,11.75
2022-11-12T09:00:12.357Z,10.82
2022-11-12T09:05:14.084Z,10.50
2022-11-12T09:10:15.854Z,12.38
2022-11-12T09:20:39.584Z,9.93
2022-11-12T09:25:42.209Z,9.43
2022-11-12T09:30:49.189Z,9.98
2022-11-12T09:35:51.325Z,11.50
2022-11-12T09:40:52.943Z,10.45
2022-11-12T09:46:13.981Z,9.82
2022-11-12T09:51:24.784Z,11.18
2022-11-12T09:56:28.340Z,10.30
2022-11-12T10:02:00.478Z,10.40
2022-11-12T10:07:13.617Z,9.52
2022-11-12T10:12:33.846Z,11.80
2022-11-12T10:17:44.127Z,11.65
2022-11-12T10:22:58.416Z,9.18
2022-11-12T10:28:06.236Z,9.38
2022-11-12T10:33:15.026Z,8.40
2022-11-12T10:38:25.752Z,10.00
2022-11-12T10:43:27.670Z,13.27
2022-11-12T10:48:35.641Z,8.57
2022-11-12T10:53:39.826Z,10.25
2022-11-12T10:58:41.494Z,8.45
2022-11-12T11:03:55.985Z,10.15
2022-11-12T11:09:12.891Z,10.35
2022-11-12T11:14:35.689Z,12.55
2022-11-12T11:19:42.582Z,8.15
2022-11-12T11:25:12.097Z,10.40
2022-11-12T11:30:17.996Z,9.00
2022-11-12T11:35:37.936Z,8.23
2022-11-12T11:40:50.608Z,9.80
2022-11-12T11:46:16.399Z,8.68
2022-11-12T11:51:55.744Z,9.50
2022-11-12T11:57:00.227Z,9.82
2022-11-12T12:02:21.625Z,9.02
2022-11-12T12:07:47.141Z,10.25
2022-11-12T12:13:06.358Z,8.35
2022-11-12T12:18:32.259Z,7.88
2022-11-12T12:23:45.861Z,8.27
2022-11-12T12:29:10.488Z,7.78
2022-11-12T12:34:38.839Z,7.40
2022-11-12T12:40:05.098Z,9.95
2022-11-12T12:45:29.610Z,7.93
2022-11-12T12:50:39.612Z,9.43
2022-11-12T12:55:44.679Z,8.15
2022-11-12T13:00:59.058Z,7.25
2022-11-12T13:06:22.806Z,7.03
2022-11-12T13:12:01.486Z,6.47
2022-11-12T13:17:04.427Z,6.13
2022-11-12T13:22:18.272Z,11.38
2022-11-12T13:27:42.553Z,6.25
2022-11-12T13:32:54.782Z,9.80
2022-11-12T13:37:58.552Z,10.68
2022-11-12T13:43:06.217Z,8.07
2022-11-12T13:48:12.773Z,7.95
2022-11-12T13:53:22.378Z,8.80
2022-11-12T13:58:29.904Z,9.68
2022-11-12T14:03:45.643Z,10.15
2022-11-12T14:09:05.881Z,8.30
2022-11-12T14:14:26.227Z,8.43
2022-11-12T14:19:49.900Z,12.23
2022-11-12T14:24:59.900Z,11.32
2022-11-12T14:30:08.440Z,15.13
2022-11-12T14:35:28.362Z,14.13
2022-11-12T14:40:52.011Z,12.40
2022-11-12T14:45:55.679Z,14.63
2022-11-12T14:51:05.925Z,12.43
2022-11-12T14:56:11.026Z,12.18
2022-11-12T15:06:57.769Z,14.23
2022-11-12T15:11:59.683Z,15.43
2022-11-12T15:17:01.867Z,20.08
2022-11-12T15:22:04.345Z,15.40
2022-11-12T15:27:35.036Z,13.50
2022-11-12T15:32:36.708Z,26.23
2022-11-12T15:37:42.717Z,12.88
2022-11-12T15:42:44.910Z,28.92
2022-11-12T15:47:47.259Z,33.13
2022-11-12T15:52:49.790Z,20.45
2022-11-12T15:57:53.024Z,19.50
2022-11-12T16:03:18.735Z,22.33
2022-11-12T16:08:20.438Z,23.38
2022-11-12T16:13:25.526Z,16.77
2022-11-12T16:18:27.377Z,18.85
2022-11-12T16:23:29.423Z,23.10
2022-11-12T16:28:31.368Z,22.27
2022-11-12T16:33:33.070Z,41.97
2022-11-12T16:38:34.783Z,29.13
2022-11-12T16:43:36.455Z,34.40
2022-11-12T16:48:38.929Z,31.15
2022-11-12T16:53:40.742Z,29.58
2022-11-12T16:58:42.467Z,31.80
2022-11-12T17:03:44.219Z,37.03
2022-11-12T17:08:48.156Z,39.13
2022-11-12T17:13:50.093Z,43.00
2022-11-12T17:18:55.804Z,49.47
2022-11-12T17:23:58.607Z,44.95
2022-11-12T17:29:06.574Z,54.35
2022-11-12T17:34:10.509Z,73.15
2022-11-12T17:39:13.259Z,83.28
2022-11-12T17:44:17.215Z,63.45
2022-11-12T17:49:19.121Z,47.10
2022-11-12T17:54:21.365Z,42.13
2022-11-12T17:59:23.212Z,42.15
2022-11-12T18:04:26.579Z,44.45
2022-11-12T18:09:31.594Z,46.47
2022-11-12T18:14:33.326Z,50.08
2022-11-12T18:19:35.026Z,50.45
2022-11-12T18:24:36.890Z,56.50
2022-11-12T18:29:40.251Z,58.60
2022-11-12T18:34:45.007Z,50.15
2022-11-12T18:39:46.744Z,54.70
2022-11-12T18:44:48.434Z,50.83
2022-11-12T18:49:50.177Z,54.60
2022-11-12T18:54:51.866Z,54.60
2022-11-12T18:59:55.021Z,47.08
2022-11-12T19:04:56.694Z,50.05
2022-11-12T19:09:58.379Z,55.60
2022-11-12T19:15:00.103Z,53.65
2022-11-12T19:20:01.792Z,47.15
2022-11-12T19:25:03.949Z,54.08
2022-11-12T19:30:06.869Z,49.58
2022-11-12T19:35:08.924Z,45.38
2022-11-12T19:40:11.592Z,42.83
2022-11-12T19:45:13.308Z,45.40
2022-11-12T19:50:14.982Z,44.78
2022-11-12T19:55:16.770Z,45.83
2022-11-12T20:00:18.659Z,45.05
2022-11-12T20:05:20.424Z,89.95
2022-11-12T20:10:22.156Z,48.45
2022-11-12T20:15:23.822Z,48.03
2022-11-12T20:20:25.538Z,40.75
2022-11-12T20:25:27.227Z,47.50
2022-11-12T20:30:28.870Z,46.47
2022-11-12T20:35:30.603Z,51.00
2022-11-12T20:40:32.780Z,49.55
2022-11-12T20:45:35.150Z,46.05
2022-11-12T20:50:36.985Z,48.53
2022-11-12T20:55:39.374Z,49.70
2022-11-12T21:00:41.129Z,49.33
2022-11-12T21:05:42.790Z,47.38
2022-11-12T21:10:49.151Z,48.03
2022-11-12T21:15:52.037Z,49.20
2022-11-12T21:21:00.365Z,46.05
2022-11-12T21:26:04.277Z,45.60
2022-11-12T21:31:09.330Z,48.97
2022-11-12T21:36:16.182Z,44.30
2022-11-12T21:41:22.006Z,49.72
2022-11-12T21:46:29.095Z,51.28
2022-11-12T21:51:32.064Z,47.65
2022-11-12T21:56:34.496Z,47.40
2022-11-12T22:01:36.284Z,47.90
2022-11-12T22:06:38.492Z,43.80
2022-11-12T22:11:40.336Z,47.53
2022-11-12T22:16:41.994Z,49.50
2022-11-12T22:21:43.639Z,53.50
2022-11-12T22:26:45.379Z,49.90
2022-11-12T22:31:47.307Z,44.45
2022-11-12T22:36:48.976Z,38.67
2022-11-12T22:41:50.712Z,41.15
2022-11-12T22:46:52.375Z,36.47
2022-11-12T22:51:54.086Z,41.05
2022-11-12T22:56:55.729Z,37.78
2022-11-12T23:01:57.391Z,40.83
2022-11-12T23:06:59.162Z,41.95
2022-11-12T23:12:00.990Z,41.33
2022-11-12T23:17:02.746Z,37.45
2022-11-12T23:22:07.931Z,39.25
2022-11-12T23:27:09.941Z,36.35
2022-11-12T23:32:12.154Z,36.50
2022-11-12T23:37:13.865Z,35.45
2022-11-12T23:42:15.588Z,42.53
2022-11-12T23:47:17.296Z,37.35
2022-11-12T23:52:19.197Z,36.95
2022-11-12T23:57:21.191Z,39.10
